Patetown, North Carolina
Current Conditions -  °F | °C
As of 9:55 PM on Friday 31 Oct 2014 (Local Time) from KGWW Reporting Station
Clear Clear  
Wind Chill: 45°   Ceiling: Unl
Heat Index: 45°   Visibility: 10mi
Dew Point: 44°   Wind: 0mph
Humidity: 95%   Direction: NA
Pressure: 29.8"   Gusts: NA
Location:  35.4141°N, 78.0215°W
Report Text: KGWW 010155Z AUTO 00000KT 10SM CLR 07/06 A2980 RMK AO2 T00720064
Loading
Personal Weather Stations






























Interactive Weather Map
Tropical Storm Tracking
New forecast layout! Learn more

10-Day Weather Forecast

Advertisements
Track Severe Weather on mobile